createdAt,value
2023-05-04T00:01:18.985Z,3.50
2023-05-04T00:03:47.850Z,3.70
2023-05-04T00:06:19.351Z,3.80
2023-05-04T00:08:48.156Z,3.87
2023-05-04T00:11:16.380Z,3.17
2023-05-04T00:13:45.156Z,3.60
2023-05-04T00:16:13.481Z,3.70
2023-05-04T00:18:42.199Z,4.07
2023-05-04T00:21:10.734Z,4.23
2023-05-04T00:23:39.221Z,3.73
2023-05-04T00:26:12.164Z,4.00
2023-05-04T00:28:40.201Z,4.10
2023-05-04T00:31:12.624Z,3.73
2023-05-04T00:33:41.603Z,3.53
2023-05-04T00:36:10.059Z,3.80
2023-05-04T00:38:52.540Z,3.90
2023-05-04T00:41:25.339Z,6.27
2023-05-04T00:43:53.328Z,3.90
2023-05-04T00:46:21.797Z,4.13
2023-05-04T00:48:51.839Z,3.70
2023-05-04T00:51:24.356Z,7.03
2023-05-04T00:53:54.744Z,4.20
2023-05-04T00:56:24.830Z,4.13
2023-05-04T00:58:58.097Z,4.07
2023-05-04T01:01:26.831Z,4.30
2023-05-04T01:03:55.793Z,3.97
2023-05-04T01:06:29.625Z,4.10
2023-05-04T01:09:11.174Z,3.70
2023-05-04T01:11:49.362Z,3.90
2023-05-04T01:14:19.250Z,4.60
2023-05-04T01:16:47.811Z,3.97
2023-05-04T01:19:16.922Z,3.60
2023-05-04T01:21:45.032Z,4.27
2023-05-04T01:24:13.052Z,4.00
2023-05-04T01:26:44.342Z,5.67
2023-05-04T01:29:20.279Z,3.93
2023-05-04T01:31:49.296Z,5.27
2023-05-04T01:34:20.040Z,5.77
2023-05-04T01:36:48.626Z,5.60
2023-05-04T01:39:16.892Z,5.60
2023-05-04T01:41:47.912Z,5.50
2023-05-04T01:44:16.987Z,5.17
2023-05-04T01:46:45.298Z,5.57
2023-05-04T01:49:13.377Z,6.00
2023-05-04T01:51:41.484Z,5.67
2023-05-04T01:54:09.627Z,5.00
2023-05-04T01:56:58.088Z,5.63
2023-05-04T01:59:25.997Z,5.13
2023-05-04T02:01:54.151Z,5.17
2023-05-04T02:04:22.330Z,5.60
2023-05-04T02:06:50.820Z,6.23
2023-05-04T02:09:18.850Z,5.77
2023-05-04T02:11:47.176Z,5.87
2023-05-04T02:14:15.454Z,5.97
2023-05-04T02:16:43.666Z,6.03
2023-05-04T02:19:11.710Z,6.30
2023-05-04T02:21:42.435Z,6.67
2023-05-04T02:24:10.827Z,6.00
2023-05-04T02:26:39.088Z,6.57
2023-05-04T02:29:07.616Z,6.17
2023-05-04T02:31:36.311Z,6.53
2023-05-04T02:34:04.689Z,5.87
2023-05-04T02:36:32.984Z,6.20
2023-05-04T02:39:04.084Z,6.10
2023-05-04T02:41:32.101Z,5.83
2023-05-04T02:44:00.167Z,6.30
2023-05-04T02:46:28.121Z,5.53
2023-05-04T02:48:59.229Z,5.70
2023-05-04T02:51:27.390Z,5.30
2023-05-04T02:53:55.720Z,5.30
2023-05-04T02:56:24.643Z,4.30
2023-05-04T02:58:52.902Z,4.63
2023-05-04T03:01:20.938Z,4.80
2023-05-04T03:03:49.342Z,4.40
2023-05-04T03:06:17.233Z,4.63
2023-05-04T03:08:45.603Z,5.03
2023-05-04T03:11:13.999Z,4.60
2023-05-04T03:13:42.138Z,4.83
2023-05-04T03:16:10.633Z,4.43
2023-05-04T03:18:40.437Z,3.75
2023-05-04T03:21:08.773Z,3.60
2023-05-04T03:23:37.150Z,3.67
2023-05-04T03:26:06.740Z,3.97
2023-05-04T03:28:40.823Z,4.18
2023-05-04T03:31:09.177Z,4.82
2023-05-04T03:33:37.468Z,4.50
2023-05-04T03:36:05.830Z,4.72
2023-05-04T03:38:34.363Z,5.43
2023-05-04T03:41:02.424Z,5.70
2023-05-04T03:43:31.118Z,6.57
2023-05-04T03:45:59.797Z,6.70
2023-05-04T03:48:28.135Z,7.00
2023-05-04T03:50:56.570Z,7.70
2023-05-04T03:53:24.727Z,7.10
2023-05-04T03:55:53.097Z,7.50
2023-05-04T03:58:21.550Z,7.15
2023-05-04T04:00:49.562Z,6.43
2023-05-04T04:03:18.228Z,7.97
2023-05-04T04:05:46.496Z,6.35
2023-05-04T04:08:14.744Z,6.50
2023-05-04T04:10:43.258Z,5.95
2023-05-04T04:13:11.657Z,6.00
2023-05-04T04:15:42.045Z,6.82
2023-05-04T04:18:11.691Z,6.78
2023-05-04T04:20:39.613Z,7.18
2023-05-04T04:23:07.667Z,6.60
2023-05-04T04:25:35.774Z,6.65
2023-05-04T04:28:05.103Z,6.68
2023-05-04T04:30:33.609Z,6.05
2023-05-04T04:33:02.448Z,10.23
2023-05-04T04:35:33.525Z,7.28
2023-05-04T04:38:03.797Z,7.60
2023-05-04T04:40:32.406Z,6.20
2023-05-04T04:43:00.306Z,7.30
2023-05-04T04:45:28.611Z,6.15
2023-05-04T04:47:56.663Z,6.20
2023-05-04T04:50:25.360Z,4.55
2023-05-04T04:52:53.505Z,5.90
2023-05-04T04:55:21.483Z,5.90
2023-05-04T04:57:49.421Z,6.40
2023-05-04T05:00:18.249Z,6.63
2023-05-04T05:05:31.832Z,6.78
2023-05-04T05:08:00.967Z,7.70
2023-05-04T05:10:29.330Z,7.03
2023-05-04T05:12:57.550Z,8.07
2023-05-04T05:15:26.180Z,9.00
2023-05-04T05:17:54.600Z,8.55
2023-05-04T05:20:24.041Z,8.93
2023-05-04T05:22:52.651Z,8.90
2023-05-04T05:25:21.410Z,7.55
2023-05-04T05:27:50.698Z,7.40
2023-05-04T05:30:19.390Z,6.32
2023-05-04T05:32:49.315Z,6.63
2023-05-04T05:35:17.717Z,5.60
2023-05-04T05:37:46.252Z,4.75
2023-05-04T05:40:14.744Z,5.45
2023-05-04T05:42:43.353Z,5.07
2023-05-04T05:45:11.968Z,5.00
2023-05-04T05:47:40.145Z,6.03
2023-05-04T05:50:08.933Z,5.70
2023-05-04T05:52:37.647Z,6.75
2023-05-04T05:55:06.308Z,6.68
2023-05-04T05:57:34.525Z,6.88
2023-05-04T06:00:03.882Z,7.80
2023-05-04T06:02:33.806Z,7.03
2023-05-04T06:05:03.291Z,8.65
2023-05-04T06:07:32.409Z,9.27
2023-05-04T06:10:00.700Z,10.00
2023-05-04T06:12:28.810Z,8.73
2023-05-04T06:14:56.980Z,12.50
2023-05-04T06:17:25.339Z,8.93
2023-05-04T06:19:53.583Z,10.90
2023-05-04T06:22:22.154Z,9.88
2023-05-04T06:24:50.391Z,9.82
2023-05-04T06:27:19.104Z,11.25
2023-05-04T06:29:47.637Z,10.75
2023-05-04T06:32:15.795Z,11.82
2023-05-04T06:34:44.796Z,10.80
2023-05-04T06:37:15.561Z,10.98
2023-05-04T06:39:44.244Z,10.60
2023-05-04T06:42:12.702Z,10.27
2023-05-04T06:44:40.704Z,11.65
2023-05-04T06:47:08.757Z,10.00
2023-05-04T06:49:36.886Z,9.10
2023-05-04T06:52:05.460Z,8.05
2023-05-04T06:54:33.753Z,8.40
2023-05-04T06:57:05.482Z,8.43
2023-05-04T06:59:34.507Z,8.63
2023-05-04T07:02:02.572Z,8.73
2023-05-04T07:04:30.724Z,8.30
2023-05-04T07:06:58.839Z,6.88
2023-05-04T07:09:27.281Z,6.50
2023-05-04T07:11:55.627Z,7.30
2023-05-04T07:14:24.241Z,6.40
2023-05-04T07:16:53.163Z,5.30
2023-05-04T07:19:21.796Z,5.35
2023-05-04T07:21:50.109Z,5.80
2023-05-04T07:24:18.418Z,4.90
2023-05-04T07:26:47.034Z,4.27
2023-05-04T07:29:17.174Z,4.50
2023-05-04T07:31:45.485Z,4.03
2023-05-04T07:34:14.034Z,3.80
2023-05-04T07:36:45.480Z,4.63
2023-05-04T07:39:15.938Z,5.53
2023-05-04T07:41:44.468Z,5.53
2023-05-04T07:44:13.178Z,6.83
2023-05-04T07:46:44.135Z,6.60
2023-05-04T07:49:14.519Z,9.77
2023-05-04T07:51:42.512Z,7.40
2023-05-04T07:54:11.121Z,7.43
2023-05-04T07:56:39.260Z,6.50
2023-05-04T07:59:07.356Z,7.47
2023-05-04T08:01:36.508Z,7.40
2023-05-04T08:04:04.910Z,7.00
2023-05-04T08:06:35.774Z,8.37
2023-05-04T08:09:03.930Z,10.27
2023-05-04T08:11:34.402Z,7.47
2023-05-04T08:14:03.078Z,8.30
2023-05-04T08:16:32.803Z,7.43
2023-05-04T08:19:01.709Z,6.53
2023-05-04T08:21:29.968Z,6.77
2023-05-04T08:23:59.116Z,7.10
2023-05-04T08:26:27.691Z,5.60
2023-05-04T08:29:07.642Z,6.83
2023-05-04T08:31:36.106Z,5.90
2023-05-04T08:34:05.254Z,5.77
2023-05-04T08:36:33.985Z,5.60
2023-05-04T08:39:02.208Z,6.18
2023-05-04T08:41:31.228Z,6.15
2023-05-04T08:43:59.588Z,4.57
2023-05-04T08:46:31.070Z,5.35
2023-05-04T08:48:59.280Z,4.43
2023-05-04T08:51:27.685Z,4.35
2023-05-04T08:53:56.252Z,3.88
2023-05-04T08:56:24.664Z,4.18
2023-05-04T08:58:53.238Z,2.70
2023-05-04T09:01:22.722Z,2.67
2023-05-04T09:03:52.740Z,1.50
2023-05-04T09:06:21.248Z,2.00
2023-05-04T09:08:49.363Z,2.50
2023-05-04T09:11:17.542Z,2.40
2023-05-04T09:13:45.706Z,2.58
2023-05-04T09:16:15.643Z,2.00
2023-05-04T09:18:44.968Z,2.20
2023-05-04T09:21:13.143Z,1.50
2023-05-04T09:23:49.716Z,2.05
2023-05-04T09:26:28.660Z,1.88
2023-05-04T09:28:57.880Z,2.70
2023-05-04T09:31:26.969Z,3.58
2023-05-04T09:34:01.153Z,4.38
2023-05-04T09:36:29.758Z,4.10
2023-05-04T09:38:57.966Z,4.32
2023-05-04T09:41:34.253Z,4.82
2023-05-04T09:44:03.800Z,3.80
2023-05-04T09:46:32.259Z,3.78
2023-05-04T09:49:01.177Z,3.50
2023-05-04T09:51:29.353Z,3.13
2023-05-04T09:53:59.065Z,3.17
2023-05-04T09:56:30.285Z,3.50
2023-05-04T09:59:02.340Z,3.75
2023-05-04T10:01:35.291Z,3.72
2023-05-04T10:04:04.903Z,3.83
2023-05-04T10:06:38.276Z,3.17
2023-05-04T10:09:10.299Z,3.63
2023-05-04T10:11:38.440Z,3.13
2023-05-04T10:14:07.683Z,3.30
2023-05-04T10:16:52.584Z,3.30
2023-05-04T10:19:30.092Z,3.40
2023-05-04T10:22:25.884Z,3.50
2023-05-04T10:25:22.911Z,3.60
2023-05-04T10:28:17.084Z,3.65
2023-05-04T10:30:46.085Z,4.57
2023-05-04T10:33:14.450Z,3.20
2023-05-04T10:35:56.393Z,3.88
2023-05-04T10:38:45.603Z,2.83
2023-05-04T10:41:22.400Z,3.05
2023-05-04T10:43:53.746Z,2.80
2023-05-04T10:46:23.194Z,2.83
2023-05-04T10:48:52.254Z,2.20
2023-05-04T10:51:21.604Z,2.30
2023-05-04T10:53:50.048Z,3.05
2023-05-04T10:56:25.765Z,2.95
2023-05-04T10:58:54.842Z,3.42
2023-05-04T11:01:23.576Z,2.20
2023-05-04T11:03:52.859Z,2.00
2023-05-04T11:06:25.297Z,2.35
2023-05-04T11:09:02.977Z,1.77
2023-05-04T11:11:37.013Z,1.73
2023-05-04T11:14:05.188Z,2.17
2023-05-04T11:16:33.712Z,1.50
2023-05-04T11:19:09.959Z,1.75
2023-05-04T11:21:38.462Z,2.15
2023-05-04T11:24:06.913Z,2.03
2023-05-04T11:26:48.286Z,2.00
2023-05-04T11:29:17.536Z,1.52
2023-05-04T11:31:55.222Z,1.92
2023-05-04T11:34:24.009Z,1.60
2023-05-04T11:36:52.254Z,1.38
2023-05-04T11:39:23.722Z,1.70
2023-05-04T11:41:53.394Z,1.60
2023-05-04T11:44:22.931Z,1.67
2023-05-04T11:46:52.159Z,1.33
2023-05-04T11:49:21.094Z,2.00
2023-05-04T11:51:49.780Z,1.70
2023-05-04T11:54:22.596Z,1.67
2023-05-04T11:56:50.800Z,2.88
2023-05-04T11:59:19.145Z,2.13
2023-05-04T12:01:48.869Z,1.92
2023-05-04T12:04:17.429Z,2.50
2023-05-04T12:06:46.912Z,2.33
2023-05-04T12:09:15.295Z,3.05
2023-05-04T12:11:54.941Z,2.50
2023-05-04T12:14:24.801Z,1.92
2023-05-04T12:16:58.069Z,2.40
2023-05-04T12:19:26.364Z,4.00
2023-05-04T12:21:55.425Z,3.88
2023-05-04T12:24:24.482Z,4.30
2023-05-04T12:26:52.716Z,3.65
2023-05-04T12:29:21.268Z,3.30
2023-05-04T12:31:49.635Z,3.60
2023-05-04T12:34:18.197Z,3.00
2023-05-04T12:36:46.742Z,3.45
2023-05-04T12:39:14.807Z,2.80
2023-05-04T12:41:42.904Z,3.05
2023-05-04T12:44:12.125Z,3.20
2023-05-04T12:46:40.459Z,3.10
2023-05-04T12:49:08.520Z,3.25
2023-05-04T12:51:36.706Z,2.90
2023-05-04T12:54:04.814Z,2.65
2023-05-04T12:56:34.139Z,2.45
2023-05-04T12:59:02.597Z,2.35
2023-05-04T13:01:31.011Z,2.63
2023-05-04T13:03:59.272Z,2.50
2023-05-04T13:06:27.830Z,2.72
2023-05-04T13:08:55.865Z,2.30
2023-05-04T13:11:25.466Z,2.63
2023-05-04T13:13:53.792Z,2.30
2023-05-04T13:16:22.107Z,1.88
2023-05-04T13:18:50.984Z,3.00
2023-05-04T13:21:23.287Z,2.05
2023-05-04T13:23:53.655Z,2.47
2023-05-04T13:26:21.742Z,2.63
2023-05-04T13:28:51.751Z,2.38
2023-05-04T13:31:19.902Z,2.55
2023-05-04T13:33:53.464Z,2.83
2023-05-04T13:36:30.720Z,4.00
2023-05-04T13:38:59.296Z,4.07
2023-05-04T13:41:27.972Z,5.72
2023-05-04T13:43:56.627Z,4.65
2023-05-04T13:46:25.251Z,4.88
2023-05-04T13:48:57.196Z,4.75
2023-05-04T13:51:26.123Z,3.80
2023-05-04T13:53:55.008Z,4.30
2023-05-04T13:56:23.995Z,4.22
2023-05-04T13:58:53.223Z,4.05
2023-05-04T14:01:21.312Z,4.55
2023-05-04T14:03:49.552Z,3.60
2023-05-04T14:06:17.789Z,3.58
2023-05-04T14:08:46.149Z,3.92
2023-05-04T14:11:14.422Z,4.38
2023-05-04T14:13:42.761Z,4.53
2023-05-04T14:16:11.331Z,4.38
2023-05-04T14:18:39.983Z,6.03
2023-05-04T14:21:08.063Z,4.57
2023-05-04T14:23:37.902Z,4.32
2023-05-04T14:26:06.338Z,7.47
2023-05-04T14:28:34.333Z,4.95
2023-05-04T14:31:09.024Z,5.30
2023-05-04T14:33:38.319Z,4.30
2023-05-04T14:36:07.093Z,4.80
2023-05-04T14:38:36.340Z,4.50
2023-05-04T14:41:05.681Z,4.33
2023-05-04T14:43:34.521Z,4.00
2023-05-04T14:46:02.768Z,4.20
2023-05-04T14:48:31.159Z,6.55
2023-05-04T14:50:59.336Z,8.68
2023-05-04T14:53:29.629Z,5.80
2023-05-04T14:55:58.102Z,5.53
2023-05-04T14:58:26.500Z,5.05
2023-05-04T15:00:59.822Z,4.47
2023-05-04T15:03:28.902Z,5.03
2023-05-04T15:05:58.189Z,4.10
2023-05-04T15:08:26.380Z,3.30
2023-05-04T15:10:58.811Z,3.43
2023-05-04T15:13:27.297Z,3.87
2023-05-04T15:15:55.284Z,3.20
2023-05-04T15:18:24.860Z,3.17
2023-05-04T15:20:54.322Z,3.40
2023-05-04T15:23:22.788Z,3.03
2023-05-04T15:25:51.150Z,2.40
2023-05-04T15:28:23.024Z,2.10
2023-05-04T15:30:51.012Z,1.70
2023-05-04T15:33:19.093Z,2.27
2023-05-04T15:35:49.563Z,8.20
2023-05-04T15:38:22.047Z,13.03
2023-05-04T15:40:53.847Z,3.70
2023-05-04T15:43:22.342Z,5.87
2023-05-04T15:45:53.166Z,3.90
2023-05-04T15:48:21.484Z,3.07
2023-05-04T15:50:55.243Z,4.27
2023-05-04T15:53:29.230Z,4.23
2023-05-04T15:55:57.956Z,4.23
2023-05-04T15:58:26.910Z,2.87
2023-05-04T16:00:55.799Z,6.10
2023-05-04T16:03:24.436Z,12.97
2023-05-04T16:05:52.612Z,4.73
2023-05-04T16:08:20.746Z,3.80
2023-05-04T16:10:49.812Z,3.50
2023-05-04T16:13:18.115Z,2.57
2023-05-04T16:15:50.541Z,2.70
2023-05-04T16:18:20.492Z,2.37
2023-05-04T16:20:49.120Z,2.43
2023-05-04T16:23:18.143Z,2.60
2023-05-04T16:25:46.697Z,2.83
2023-05-04T16:28:17.064Z,2.40
2023-05-04T16:30:49.807Z,2.53
2023-05-04T16:33:20.082Z,23.87
2023-05-04T16:35:48.387Z,10.73
2023-05-04T16:38:17.210Z,2.67
2023-05-04T16:40:45.643Z,2.53
2023-05-04T16:43:15.942Z,3.00
2023-05-04T16:45:46.104Z,3.50
2023-05-04T16:48:14.298Z,3.60
2023-05-04T16:50:42.450Z,3.20
2023-05-04T16:53:11.506Z,3.43
2023-05-04T16:55:41.152Z,3.30
2023-05-04T16:58:09.314Z,2.90
2023-05-04T17:00:37.398Z,3.23
2023-05-04T17:03:05.530Z,2.83
2023-05-04T17:05:35.370Z,3.70
2023-05-04T17:08:03.870Z,3.43
2023-05-04T17:10:32.057Z,3.10
2023-05-04T17:13:02.275Z,4.03
2023-05-04T17:15:31.344Z,3.83
2023-05-04T17:18:01.232Z,3.60
2023-05-04T17:20:32.354Z,3.33
2023-05-04T17:23:00.929Z,4.13
2023-05-04T17:25:34.399Z,3.57
2023-05-04T17:28:02.543Z,4.13
2023-05-04T17:30:31.064Z,4.63
2023-05-04T17:32:58.969Z,36.80
2023-05-04T17:35:29.863Z,27.67
2023-05-04T17:37:58.977Z,9.93
2023-05-04T17:40:30.266Z,4.87
2023-05-04T17:42:58.198Z,3.80
2023-05-04T17:45:26.571Z,4.63
2023-05-04T17:47:54.590Z,4.70
2023-05-04T17:50:25.899Z,5.73
2023-05-04T17:52:58.185Z,4.80
2023-05-04T17:55:27.481Z,4.30
2023-05-04T17:57:56.356Z,9.13
2023-05-04T18:00:25.908Z,5.73
2023-05-04T18:02:54.526Z,5.67
2023-05-04T18:05:23.820Z,5.50
2023-05-04T18:07:52.346Z,5.90
2023-05-04T18:10:21.177Z,5.40
2023-05-04T18:12:50.411Z,9.27
2023-05-04T18:15:18.821Z,5.77
2023-05-04T18:17:49.645Z,6.70
2023-05-04T18:20:17.909Z,12.73
2023-05-04T18:22:47.296Z,11.40
2023-05-04T18:25:19.399Z,6.20
2023-05-04T18:27:49.466Z,6.13
2023-05-04T18:30:22.412Z,6.13
2023-05-04T18:32:52.488Z,6.67
2023-05-04T18:35:22.112Z,5.97
2023-05-04T18:37:50.397Z,6.00
2023-05-04T18:40:18.853Z,5.87
2023-05-04T18:42:46.869Z,5.23
2023-05-04T18:45:14.845Z,4.93
2023-05-04T18:47:43.352Z,6.37
2023-05-04T18:50:14.064Z,6.17
2023-05-04T18:52:45.670Z,5.70
2023-05-04T18:55:27.147Z,5.10
2023-05-04T18:57:57.000Z,5.27
2023-05-04T19:00:31.178Z,5.20
2023-05-04T19:03:05.355Z,5.00
2023-05-04T19:05:44.760Z,5.57
2023-05-04T19:08:13.217Z,4.90
2023-05-04T19:10:43.473Z,5.43
2023-05-04T19:13:11.868Z,4.90
2023-05-04T19:15:54.347Z,5.50
2023-05-04T19:18:24.824Z,4.27
2023-05-04T19:20:58.613Z,4.80
2023-05-04T19:23:27.450Z,5.03
2023-05-04T19:26:04.683Z,5.57
2023-05-04T19:28:32.857Z,5.83
2023-05-04T19:31:03.903Z,4.93
2023-05-04T19:33:44.456Z,5.73
2023-05-04T19:36:36.981Z,5.83
2023-05-04T19:39:05.355Z,7.60
2023-05-04T19:41:33.515Z,10.67
2023-05-04T19:44:18.446Z,18.20
2023-05-04T19:46:47.920Z,18.17
2023-05-04T19:49:16.299Z,20.17
2023-05-04T19:51:45.172Z,20.40
2023-05-04T19:56:57.362Z,18.07
2023-05-04T19:59:25.829Z,16.03
2023-05-04T20:01:53.984Z,15.17
2023-05-04T20:04:22.574Z,12.00
2023-05-04T20:06:50.864Z,9.67
2023-05-04T20:09:19.891Z,8.93
2023-05-04T20:11:48.339Z,12.10
2023-05-04T20:14:16.743Z,9.00
2023-05-04T20:16:45.280Z,9.73
2023-05-04T20:19:13.483Z,8.67
2023-05-04T20:21:44.911Z,7.60
2023-05-04T20:24:13.364Z,7.67
2023-05-04T20:26:44.229Z,8.33
2023-05-04T20:29:12.519Z,6.93
2023-05-04T20:31:41.551Z,7.87
2023-05-04T20:34:09.989Z,8.10
2023-05-04T20:36:38.497Z,7.17
2023-05-04T20:39:07.510Z,7.97
2023-05-04T20:41:39.177Z,5.33
2023-05-04T20:44:07.180Z,4.87
2023-05-04T20:46:35.387Z,5.53
2023-05-04T20:49:03.843Z,4.90
2023-05-04T20:51:33.095Z,9.23
2023-05-04T20:54:01.483Z,9.17
2023-05-04T20:56:30.010Z,9.80
2023-05-04T20:58:58.403Z,15.43
2023-05-04T21:01:26.442Z,8.63
2023-05-04T21:03:55.209Z,6.63
2023-05-04T21:06:24.681Z,7.27
2023-05-04T21:08:52.632Z,8.93
2023-05-04T21:11:21.513Z,9.67
2023-05-04T21:13:49.750Z,9.30
2023-05-04T21:16:18.513Z,7.03
2023-05-04T21:18:47.045Z,7.53
2023-05-04T21:21:18.719Z,6.43
2023-05-04T21:23:47.032Z,5.50
2023-05-04T21:26:15.253Z,4.80
2023-05-04T21:28:43.810Z,4.57
2023-05-04T21:31:11.812Z,5.17
2023-05-04T21:33:40.300Z,4.47
2023-05-04T21:36:15.304Z,4.67
2023-05-04T21:38:43.289Z,4.53
2023-05-04T21:41:15.250Z,4.70
2023-05-04T21:43:43.560Z,7.77
2023-05-04T21:46:13.116Z,8.07
2023-05-04T21:48:41.482Z,6.30
2023-05-04T21:51:09.723Z,9.77
2023-05-04T21:53:37.869Z,12.10
2023-05-04T21:56:07.953Z,13.03
2023-05-04T21:58:45.697Z,7.63
2023-05-04T22:01:20.442Z,10.43
2023-05-04T22:03:50.143Z,11.57
2023-05-04T22:06:19.256Z,7.67
2023-05-04T22:08:47.748Z,6.93
2023-05-04T22:11:16.085Z,7.33
2023-05-04T22:13:44.696Z,13.53
2023-05-04T22:16:13.594Z,7.27
2023-05-04T22:18:41.770Z,8.83
2023-05-04T22:21:09.922Z,7.10
2023-05-04T22:23:41.185Z,8.57
2023-05-04T22:26:11.782Z,8.90
2023-05-04T22:28:39.846Z,7.43
2023-05-04T22:31:08.508Z,7.60
2023-05-04T22:33:36.778Z,7.67
2023-05-04T22:36:05.206Z,7.80
2023-05-04T22:38:36.686Z,7.43
2023-05-04T22:41:04.871Z,6.30
2023-05-04T22:43:36.409Z,6.23
2023-05-04T22:46:04.872Z,5.73
2023-05-04T22:48:34.635Z,6.93
2023-05-04T22:51:02.861Z,7.80
2023-05-04T22:53:38.168Z,7.30
2023-05-04T22:56:06.977Z,6.57
2023-05-04T22:58:35.519Z,7.60
2023-05-04T23:01:08.991Z,9.17
2023-05-04T23:03:37.491Z,11.00
2023-05-04T23:06:06.107Z,12.83
2023-05-04T23:08:34.506Z,12.90
2023-05-04T23:11:02.601Z,11.53
2023-05-04T23:13:31.227Z,13.20
2023-05-04T23:16:01.419Z,13.03
2023-05-04T23:18:30.103Z,13.50
2023-05-04T23:20:58.254Z,15.10
2023-05-04T23:23:26.605Z,13.83
2023-05-04T23:25:54.800Z,13.33
2023-05-04T23:28:22.825Z,13.60
2023-05-04T23:30:50.838Z,12.77
2023-05-04T23:33:19.181Z,12.70
2023-05-04T23:35:47.685Z,13.67
2023-05-04T23:38:16.613Z,14.90
2023-05-04T23:40:45.145Z,13.33
2023-05-04T23:43:13.257Z,16.23
2023-05-04T23:45:41.369Z,17.17
2023-05-04T23:48:09.577Z,21.67
2023-05-04T23:50:40.450Z,24.17
2023-05-04T23:53:10.897Z,23.07
2023-05-04T23:55:38.930Z,23.00
2023-05-04T23:58:07.042Z,24.90
